createdAt,value
2023-07-23T00:00:15.999Z,61.08
2023-07-23T00:01:09.214Z,61.06
2023-07-23T00:01:53.941Z,61.04
2023-07-23T00:02:27.442Z,61.28
2023-07-23T00:03:00.802Z,61.28
2023-07-23T00:03:34.234Z,61.15
2023-07-23T00:04:07.737Z,61.34
2023-07-23T00:04:40.978Z,61.34
2023-07-23T00:05:14.263Z,61.40
2023-07-23T00:05:47.769Z,61.35
2023-07-23T00:06:21.057Z,61.34
2023-07-23T00:06:54.299Z,61.39
2023-07-23T00:07:27.554Z,61.37
2023-07-23T00:08:01.205Z,61.54
2023-07-23T00:08:34.451Z,61.40
2023-07-23T00:09:07.742Z,61.52
2023-07-23T00:09:40.915Z,61.52
2023-07-23T00:10:14.375Z,61.47
2023-07-23T00:10:47.597Z,61.45
2023-07-23T00:11:21.166Z,61.54
2023-07-23T00:11:54.747Z,61.49
2023-07-23T00:12:28.388Z,61.58
2023-07-23T00:13:01.616Z,61.62
2023-07-23T00:13:34.904Z,61.64
2023-07-23T00:14:08.179Z,61.61
2023-07-23T00:14:41.494Z,61.71
2023-07-23T00:15:14.832Z,61.71
2023-07-23T00:15:48.075Z,61.75
2023-07-23T00:16:21.384Z,61.69
2023-07-23T00:16:54.706Z,61.82
2023-07-23T00:17:28.026Z,61.73
2023-07-23T00:18:02.017Z,61.72
2023-07-23T00:18:36.950Z,61.73
2023-07-23T00:19:11.725Z,61.89
2023-07-23T00:19:44.966Z,61.79
2023-07-23T00:20:18.264Z,62.05
2023-07-23T00:20:53.811Z,62.02
2023-07-23T00:21:28.907Z,61.95
2023-07-23T00:22:02.386Z,62.05
2023-07-23T00:22:35.699Z,61.95
2023-07-23T00:23:08.946Z,61.97
2023-07-23T00:23:42.139Z,62.08
2023-07-23T00:24:21.140Z,62.13
2023-07-23T00:24:58.082Z,62.09
2023-07-23T00:25:31.350Z,62.11
2023-07-23T00:26:04.988Z,62.21
2023-07-23T00:26:38.190Z,62.23
2023-07-23T00:27:11.598Z,62.19
2023-07-23T00:27:44.848Z,62.38
2023-07-23T00:28:19.206Z,62.46
2023-07-23T00:28:52.841Z,62.51
2023-07-23T00:29:26.163Z,62.42
2023-07-23T00:29:59.337Z,62.49
2023-07-23T00:30:32.575Z,62.48
2023-07-23T00:31:06.147Z,62.65
2023-07-23T00:31:39.692Z,62.61
2023-07-23T00:32:12.981Z,62.60
2023-07-23T00:32:46.684Z,62.65
2023-07-23T00:33:23.016Z,62.80
2023-07-23T00:33:57.071Z,62.78
2023-07-23T00:34:30.361Z,62.71
2023-07-23T00:35:03.719Z,62.73
2023-07-23T00:35:37.069Z,62.75
2023-07-23T00:36:10.511Z,62.84
2023-07-23T00:36:44.082Z,62.81
2023-07-23T00:37:17.430Z,62.88
2023-07-23T00:37:51.318Z,62.94
2023-07-23T00:38:25.404Z,62.93
2023-07-23T00:38:59.073Z,62.78
2023-07-23T00:39:32.295Z,62.95
2023-07-23T00:40:06.191Z,63.02
2023-07-23T00:40:39.421Z,62.94
2023-07-23T00:41:12.686Z,62.89
2023-07-23T00:41:46.021Z,63.00
2023-07-23T00:42:19.555Z,62.84
2023-07-23T00:42:52.789Z,62.91
2023-07-23T00:43:26.135Z,62.88
2023-07-23T00:43:59.372Z,62.94
2023-07-23T00:44:33.260Z,62.96
2023-07-23T00:45:07.205Z,63.06
2023-07-23T00:45:40.946Z,63.06
2023-07-23T00:46:14.784Z,63.10
2023-07-23T00:46:48.261Z,63.17
2023-07-23T00:47:22.927Z,63.00
2023-07-23T00:47:56.216Z,63.03
2023-07-23T00:48:29.515Z,63.37
2023-07-23T00:49:02.908Z,62.94
2023-07-23T00:49:36.428Z,63.00
2023-07-23T00:50:10.896Z,63.02
2023-07-23T00:50:44.144Z,63.07
2023-07-23T00:51:17.642Z,63.21
2023-07-23T00:51:53.050Z,63.46
2023-07-23T00:52:26.500Z,63.38
2023-07-23T00:52:59.954Z,63.61
2023-07-23T00:53:33.491Z,63.72
2023-07-23T00:54:08.009Z,63.68
2023-07-23T00:54:42.304Z,63.92
2023-07-23T00:55:15.817Z,63.84
2023-07-23T00:55:50.068Z,63.86
2023-07-23T00:56:23.449Z,63.79
2023-07-23T00:56:57.245Z,63.86
2023-07-23T00:57:30.746Z,64.05
2023-07-23T00:58:04.213Z,64.13
2023-07-23T00:58:37.871Z,64.04
2023-07-23T00:59:11.881Z,64.12
2023-07-23T00:59:45.164Z,64.10
2023-07-23T01:00:18.322Z,64.07
2023-07-23T01:00:52.320Z,64.03
2023-07-23T01:01:26.982Z,63.98
2023-07-23T01:02:00.569Z,63.96
2023-07-23T01:02:33.954Z,64.06
2023-07-23T01:03:07.472Z,63.92
2023-07-23T01:03:41.149Z,63.90
2023-07-23T01:04:14.506Z,63.82
2023-07-23T01:04:47.723Z,63.66
2023-07-23T01:05:21.375Z,63.74
2023-07-23T01:06:02.178Z,63.61
2023-07-23T01:06:37.761Z,63.64
2023-07-23T01:07:11.865Z,63.46
2023-07-23T01:07:46.996Z,63.43
2023-07-23T01:08:22.180Z,63.48
2023-07-23T01:08:57.293Z,63.30
2023-07-23T01:09:31.061Z,63.31
2023-07-23T01:10:05.588Z,63.26
2023-07-23T01:10:40.716Z,63.30
2023-07-23T01:11:14.911Z,63.13
2023-07-23T01:11:49.888Z,63.17
2023-07-23T01:12:23.289Z,63.26
2023-07-23T01:12:57.123Z,63.16
2023-07-23T01:13:30.343Z,63.35
2023-07-23T01:14:07.044Z,63.22
2023-07-23T01:14:40.246Z,63.36
2023-07-23T01:15:14.227Z,63.39
2023-07-23T01:15:48.248Z,63.45
2023-07-23T01:16:21.571Z,63.51
2023-07-23T01:16:56.471Z,63.49
2023-07-23T01:17:29.813Z,63.55
2023-07-23T01:18:04.825Z,63.63
2023-07-23T01:18:39.164Z,63.67
2023-07-23T01:19:16.390Z,63.57
2023-07-23T01:20:07.686Z,63.65
2023-07-23T01:20:41.126Z,63.56
2023-07-23T01:21:18.414Z,63.54
2023-07-23T01:21:55.104Z,63.67
2023-07-23T01:22:28.360Z,63.79
2023-07-23T01:23:01.682Z,63.78
2023-07-23T01:23:35.146Z,63.81
2023-07-23T01:24:08.576Z,63.95
2023-07-23T01:24:42.436Z,63.94
2023-07-23T01:25:15.986Z,63.92
2023-07-23T01:25:49.264Z,63.99
2023-07-23T01:26:22.628Z,64.05
2023-07-23T01:26:55.833Z,64.11
2023-07-23T01:27:29.171Z,63.94
2023-07-23T01:28:02.461Z,64.03
2023-07-23T01:28:35.813Z,64.05
2023-07-23T01:29:10.861Z,64.03
2023-07-23T01:29:44.147Z,64.04
2023-07-23T01:30:17.425Z,64.03
2023-07-23T01:30:50.723Z,64.01
2023-07-23T01:31:24.309Z,64.05
2023-07-23T01:31:57.581Z,64.17
2023-07-23T01:32:30.844Z,64.11
2023-07-23T01:33:05.987Z,64.20
2023-07-23T01:33:41.445Z,64.20
2023-07-23T01:34:15.242Z,64.14
2023-07-23T01:34:49.265Z,64.28
2023-07-23T01:35:22.816Z,64.32
2023-07-23T01:35:58.405Z,64.43
2023-07-23T01:36:31.771Z,64.22
2023-07-23T01:37:06.013Z,64.31
2023-07-23T01:37:39.469Z,64.42
2023-07-23T01:38:13.962Z,64.38
2023-07-23T01:38:48.623Z,64.44
2023-07-23T01:39:22.549Z,64.57
2023-07-23T01:39:55.962Z,64.63
2023-07-23T01:40:29.393Z,64.69
2023-07-23T01:41:02.953Z,64.76
2023-07-23T01:41:36.393Z,64.68
2023-07-23T01:42:10.872Z,64.69
2023-07-23T01:42:45.927Z,64.75
2023-07-23T01:43:19.541Z,64.66
2023-07-23T01:43:53.094Z,64.62
2023-07-23T01:44:26.513Z,64.83
2023-07-23T01:45:04.773Z,64.80
2023-07-23T01:45:38.098Z,64.76
2023-07-23T01:46:11.453Z,64.75
2023-07-23T01:46:44.802Z,64.88
2023-07-23T01:47:18.167Z,64.91
2023-07-23T01:47:51.490Z,64.74
2023-07-23T01:48:26.102Z,64.87
2023-07-23T01:48:59.366Z,64.98
2023-07-23T01:50:44.140Z,64.76
2023-07-23T01:51:17.412Z,64.78
2023-07-23T01:51:51.013Z,64.85
2023-07-23T01:52:24.924Z,64.90
2023-07-23T01:53:00.787Z,64.94
2023-07-23T01:53:34.090Z,65.09
2023-07-23T01:54:07.333Z,64.97
2023-07-23T01:54:40.678Z,64.96
2023-07-23T01:55:14.143Z,65.04
2023-07-23T01:55:47.405Z,64.90
2023-07-23T01:56:20.630Z,64.92
2023-07-23T01:56:54.981Z,64.97
2023-07-23T01:57:28.533Z,64.88
2023-07-23T01:58:01.971Z,65.01
2023-07-23T01:58:35.386Z,64.87
2023-07-23T01:59:09.981Z,64.94
2023-07-23T01:59:43.273Z,65.01
2023-07-23T02:00:16.743Z,64.82
2023-07-23T02:00:49.927Z,64.88
2023-07-23T02:01:23.353Z,64.90
2023-07-23T02:01:56.904Z,64.92
2023-07-23T02:02:30.345Z,64.93
2023-07-23T02:03:03.900Z,64.93
2023-07-23T02:03:37.504Z,64.81
2023-07-23T02:04:10.770Z,64.82
2023-07-23T02:04:44.064Z,64.73
2023-07-23T02:05:19.304Z,64.74
2023-07-23T02:06:02.733Z,64.74
2023-07-23T02:06:37.868Z,64.71
2023-07-23T02:07:12.945Z,64.70
2023-07-23T02:07:46.670Z,64.75
2023-07-23T02:08:19.837Z,64.60
2023-07-23T02:08:53.103Z,64.79
2023-07-23T02:09:26.334Z,64.95
2023-07-23T02:10:00.574Z,64.86
2023-07-23T02:10:33.865Z,64.92
2023-07-23T02:11:07.617Z,64.90
2023-07-23T02:11:41.121Z,65.06
2023-07-23T02:12:14.428Z,65.18
2023-07-23T02:12:48.125Z,65.16
2023-07-23T02:13:21.386Z,65.21
2023-07-23T02:13:54.652Z,65.35
2023-07-23T02:14:27.829Z,65.37
2023-07-23T02:15:01.179Z,65.43
2023-07-23T02:15:34.673Z,65.50
2023-07-23T02:16:07.993Z,65.36
2023-07-23T02:16:41.310Z,65.44
2023-07-23T02:17:14.568Z,65.50
2023-07-23T02:17:49.409Z,65.43
2023-07-23T02:18:23.271Z,65.56
2023-07-23T02:18:57.077Z,65.54
2023-07-23T02:19:30.417Z,65.51
2023-07-23T02:20:05.362Z,65.65
2023-07-23T02:20:38.647Z,65.56
2023-07-23T02:21:11.857Z,65.51
2023-07-23T02:21:45.196Z,65.59
2023-07-23T02:22:18.804Z,65.51
2023-07-23T02:22:52.096Z,65.50
2023-07-23T02:23:25.786Z,65.50
2023-07-23T02:23:59.788Z,65.57
2023-07-23T02:24:33.052Z,65.55
2023-07-23T02:25:06.621Z,65.53
2023-07-23T02:25:41.314Z,65.62
2023-07-23T02:26:14.715Z,65.51
2023-07-23T02:26:47.926Z,65.59
2023-07-23T02:27:21.266Z,65.55
2023-07-23T02:27:54.553Z,65.67
2023-07-23T02:28:27.777Z,65.72
2023-07-23T02:29:01.036Z,65.54
2023-07-23T02:29:34.523Z,65.66
2023-07-23T02:30:08.513Z,65.63
2023-07-23T02:30:41.965Z,65.68
2023-07-23T02:31:15.432Z,65.72
2023-07-23T02:31:49.851Z,65.61
2023-07-23T02:32:23.238Z,65.80
2023-07-23T02:32:56.527Z,65.82
2023-07-23T02:33:29.892Z,65.91
2023-07-23T02:34:03.180Z,65.81
2023-07-23T02:34:36.741Z,65.81
2023-07-23T02:35:10.172Z,65.96
2023-07-23T02:35:44.166Z,65.90
2023-07-23T02:36:17.472Z,66.18
2023-07-23T02:36:50.827Z,65.97
2023-07-23T02:37:24.146Z,66.02
2023-07-23T02:37:57.331Z,66.01
2023-07-23T02:38:30.544Z,66.07
2023-07-23T02:39:04.478Z,66.09
2023-07-23T02:39:38.151Z,66.09
2023-07-23T02:40:12.174Z,66.17
2023-07-23T02:40:45.496Z,66.01
2023-07-23T02:41:18.839Z,66.10
2023-07-23T02:41:52.102Z,66.08
2023-07-23T02:42:27.475Z,66.13
2023-07-23T02:43:02.673Z,66.08
2023-07-23T02:43:36.427Z,66.05
2023-07-23T02:44:09.811Z,66.12
2023-07-23T02:44:42.990Z,66.17
2023-07-23T02:45:16.312Z,66.13
2023-07-23T02:45:49.679Z,66.22
2023-07-23T02:46:22.982Z,66.39
2023-07-23T02:46:56.252Z,66.41
2023-07-23T02:47:29.678Z,66.37
2023-07-23T02:48:03.016Z,66.38
2023-07-23T02:48:36.423Z,66.44
2023-07-23T02:49:10.145Z,66.34
2023-07-23T02:49:43.589Z,66.32
2023-07-23T02:50:16.918Z,66.31
2023-07-23T02:50:52.973Z,66.11
2023-07-23T02:51:26.831Z,66.19
2023-07-23T02:52:02.534Z,66.14
2023-07-23T02:52:36.196Z,66.05
2023-07-23T02:53:09.460Z,65.96
2023-07-23T02:53:42.725Z,65.93
2023-07-23T02:54:15.977Z,65.95
2023-07-23T02:54:49.229Z,66.16
2023-07-23T02:55:24.430Z,66.35
2023-07-23T02:55:57.620Z,66.19
2023-07-23T02:56:30.926Z,66.11
2023-07-23T02:57:04.562Z,65.87
2023-07-23T02:57:38.157Z,65.84
2023-07-23T02:58:11.435Z,65.84
2023-07-23T02:58:44.834Z,65.81
2023-07-23T02:59:18.105Z,65.88
2023-07-23T02:59:51.392Z,65.87
2023-07-23T03:00:24.844Z,65.82
2023-07-23T03:00:58.519Z,65.87
2023-07-23T03:01:32.467Z,66.03
2023-07-23T03:02:05.774Z,66.14
2023-07-23T03:02:39.161Z,66.21
2023-07-23T03:03:12.813Z,66.34
2023-07-23T03:03:48.896Z,66.31
2023-07-23T03:04:27.645Z,66.21
2023-07-23T03:05:01.176Z,66.32
2023-07-23T03:05:38.090Z,66.28
2023-07-23T03:06:11.296Z,66.40
2023-07-23T03:06:44.542Z,66.38
2023-07-23T03:07:17.814Z,66.39
2023-07-23T03:07:54.422Z,66.47
2023-07-23T03:08:27.696Z,66.54
2023-07-23T03:09:00.953Z,66.63
2023-07-23T03:09:34.438Z,66.83
2023-07-23T03:10:09.686Z,66.89
2023-07-23T03:10:43.606Z,67.02
2023-07-23T03:11:16.800Z,67.16
2023-07-23T03:11:50.092Z,67.23
2023-07-23T03:12:23.375Z,67.40
2023-07-23T03:12:56.935Z,67.54
2023-07-23T03:13:30.480Z,67.55
2023-07-23T03:14:03.709Z,67.65
2023-07-23T03:14:37.455Z,67.69
2023-07-23T03:15:11.192Z,67.88
2023-07-23T03:15:44.424Z,67.85
2023-07-23T03:16:17.708Z,67.97
2023-07-23T03:16:51.092Z,68.10
2023-07-23T03:17:24.742Z,68.11
2023-07-23T03:17:58.083Z,68.32
2023-07-23T03:18:31.785Z,68.24
2023-07-23T03:19:05.230Z,68.48
2023-07-23T03:19:38.442Z,68.70
2023-07-23T03:20:12.323Z,68.73
2023-07-23T03:20:45.657Z,68.81
2023-07-23T03:21:19.079Z,68.79
2023-07-23T03:21:52.296Z,68.74
2023-07-23T03:22:25.511Z,68.85
2023-07-23T03:22:59.704Z,68.92
2023-07-23T03:23:32.900Z,69.03
2023-07-23T03:24:06.830Z,69.01
2023-07-23T03:24:40.148Z,69.18
2023-07-23T03:25:13.510Z,69.20
2023-07-23T03:25:47.634Z,68.89
2023-07-23T03:26:20.809Z,68.77
2023-07-23T03:26:54.044Z,68.65
2023-07-23T03:27:27.274Z,68.54
2023-07-23T03:28:01.047Z,68.51
2023-07-23T03:28:34.274Z,68.47
2023-07-23T03:29:07.547Z,68.32
2023-07-23T03:29:40.936Z,68.33
2023-07-23T03:30:15.023Z,68.21
2023-07-23T03:30:49.046Z,68.24
2023-07-23T03:31:22.910Z,68.18
2023-07-23T03:31:56.278Z,68.12
2023-07-23T03:32:29.797Z,68.04
2023-07-23T03:33:03.170Z,67.86
2023-07-23T03:33:36.484Z,67.77
2023-07-23T03:34:09.661Z,67.68
2023-07-23T03:34:42.919Z,67.70
2023-07-23T03:35:16.122Z,67.53
2023-07-23T03:35:49.400Z,67.49
2023-07-23T03:36:22.652Z,67.52
2023-07-23T03:36:55.871Z,67.41
2023-07-23T03:37:29.782Z,67.32
2023-07-23T03:38:03.048Z,67.33
2023-07-23T03:38:36.448Z,67.32
2023-07-23T03:39:09.681Z,67.39
2023-07-23T03:39:43.012Z,67.31
2023-07-23T03:40:16.259Z,67.26
2023-07-23T03:40:49.731Z,67.20
2023-07-23T03:41:23.069Z,67.16
2023-07-23T03:41:56.406Z,67.12
2023-07-23T03:42:29.680Z,67.15
2023-07-23T03:43:02.922Z,66.98
2023-07-23T03:43:36.249Z,67.10
2023-07-23T03:44:09.827Z,67.02
2023-07-23T03:44:43.068Z,67.07
2023-07-23T03:45:16.347Z,66.97
2023-07-23T03:45:49.690Z,67.00
2023-07-23T03:46:23.100Z,67.10
2023-07-23T03:47:05.672Z,67.30
2023-07-23T03:47:39.310Z,67.37
2023-07-23T03:48:12.664Z,67.33
2023-07-23T03:48:45.951Z,67.32
2023-07-23T03:49:19.272Z,67.27
2023-07-23T03:49:52.560Z,67.20
2023-07-23T03:50:25.964Z,67.16
2023-07-23T03:50:59.326Z,67.08
2023-07-23T03:51:32.737Z,67.00
2023-07-23T03:52:07.008Z,66.98
2023-07-23T03:52:40.255Z,67.10
2023-07-23T03:53:13.558Z,66.97
2023-07-23T03:53:46.779Z,67.35
2023-07-23T03:54:20.078Z,67.35
2023-07-23T03:54:53.396Z,67.34
2023-07-23T03:55:27.234Z,67.27
2023-07-23T03:56:00.617Z,67.32
2023-07-23T03:56:33.830Z,67.31
2023-07-23T03:57:07.729Z,67.24
2023-07-23T03:57:41.081Z,67.31
2023-07-23T03:58:16.157Z,67.31
2023-07-23T03:58:49.406Z,67.24
2023-07-23T03:59:22.733Z,67.32
2023-07-23T03:59:55.976Z,67.22
2023-07-23T04:00:29.282Z,67.37
2023-07-23T04:01:02.474Z,67.53
2023-07-23T04:01:35.968Z,67.39
2023-07-23T04:02:10.195Z,67.51
2023-07-23T04:02:43.703Z,67.34
2023-07-23T04:03:17.135Z,67.51
2023-07-23T04:03:50.443Z,67.44
2023-07-23T04:04:24.737Z,67.43
2023-07-23T04:04:58.047Z,67.38
2023-07-23T04:05:31.547Z,67.27
2023-07-23T04:06:04.763Z,67.35
2023-07-23T04:06:38.370Z,67.32
2023-07-23T04:07:11.668Z,67.30
2023-07-23T04:07:44.994Z,67.19
2023-07-23T04:08:18.302Z,67.29
2023-07-23T04:08:51.492Z,67.24
2023-07-23T04:09:24.862Z,67.28
2023-07-23T04:09:58.144Z,67.18
2023-07-23T04:10:31.464Z,67.11
2023-07-23T04:11:05.318Z,67.21
2023-07-23T04:11:38.619Z,67.12
2023-07-23T04:12:13.049Z,67.21
2023-07-23T04:12:46.284Z,67.09
2023-07-23T04:13:20.845Z,67.04
2023-07-23T04:13:54.038Z,67.07
2023-07-23T04:14:30.204Z,67.20
2023-07-23T04:15:04.305Z,67.24
2023-07-23T04:15:38.932Z,67.29
2023-07-23T04:16:12.820Z,67.19
2023-07-23T04:16:46.279Z,67.36
2023-07-23T04:17:19.594Z,67.36
2023-07-23T04:17:52.973Z,67.55
2023-07-23T04:18:26.185Z,67.51
2023-07-23T04:18:59.470Z,67.56
2023-07-23T04:19:32.778Z,67.70
2023-07-23T04:20:06.776Z,67.61
2023-07-23T04:20:40.114Z,67.73
2023-07-23T04:21:13.720Z,67.79
2023-07-23T04:21:47.021Z,67.89
2023-07-23T04:22:20.282Z,67.83
2023-07-23T04:22:53.558Z,67.95
2023-07-23T04:23:26.790Z,68.05
2023-07-23T04:24:01.815Z,68.01
2023-07-23T04:24:35.111Z,68.14
2023-07-23T04:25:08.873Z,68.07
2023-07-23T04:25:42.155Z,68.14
2023-07-23T04:26:17.070Z,68.34
2023-07-23T04:26:50.282Z,68.27
2023-07-23T04:27:23.654Z,68.31
2023-07-23T04:27:56.894Z,68.40
2023-07-23T04:28:30.076Z,68.23
2023-07-23T04:29:03.545Z,68.14
2023-07-23T04:29:37.162Z,68.12
2023-07-23T04:30:10.879Z,68.17
2023-07-23T04:30:44.293Z,68.05
2023-07-23T04:31:17.693Z,68.09
2023-07-23T04:31:51.061Z,67.97
2023-07-23T04:32:24.417Z,67.95
2023-07-23T04:32:59.042Z,68.03
2023-07-23T04:33:32.269Z,68.06
2023-07-23T04:34:05.547Z,68.29
2023-07-23T04:34:38.841Z,68.26
2023-07-23T04:35:12.788Z,68.37
2023-07-23T04:35:47.945Z,68.39
2023-07-23T04:36:21.290Z,68.33
2023-07-23T04:36:54.790Z,68.29
2023-07-23T04:37:27.972Z,68.32
2023-07-23T04:38:01.172Z,68.35
2023-07-23T04:38:35.296Z,68.41
2023-07-23T04:39:08.576Z,68.57
2023-07-23T04:39:41.833Z,68.73
2023-07-23T04:40:15.140Z,68.93
2023-07-23T04:40:49.436Z,69.01
2023-07-23T04:41:22.713Z,69.28
2023-07-23T04:41:55.964Z,69.23
2023-07-23T04:42:29.215Z,69.40
2023-07-23T04:43:02.655Z,69.31
2023-07-23T04:43:37.383Z,69.39
2023-07-23T04:44:10.602Z,69.47
2023-07-23T04:44:43.854Z,69.62
2023-07-23T04:45:17.260Z,69.69
2023-07-23T04:45:50.660Z,69.67
2023-07-23T04:46:23.985Z,69.59
2023-07-23T04:46:57.286Z,69.56
2023-07-23T04:47:30.582Z,69.88
2023-07-23T04:48:04.037Z,69.63
2023-07-23T04:48:38.587Z,69.44
2023-07-23T04:49:11.799Z,69.22
2023-07-23T04:49:45.337Z,69.14
2023-07-23T04:50:18.640Z,69.16
2023-07-23T04:51:03.376Z,69.24
2023-07-23T04:51:36.969Z,69.21
2023-07-23T04:52:10.361Z,69.29
2023-07-23T04:52:43.719Z,69.46
2023-07-23T04:53:20.323Z,69.61
2023-07-23T04:53:53.676Z,69.80
2023-07-23T04:54:27.456Z,70.18
2023-07-23T04:55:00.833Z,70.05
2023-07-23T04:55:34.619Z,70.26
2023-07-23T04:56:07.987Z,70.28
2023-07-23T04:56:41.262Z,70.48
2023-07-23T04:57:14.546Z,70.32
2023-07-23T04:57:47.916Z,70.40
2023-07-23T04:58:22.016Z,70.55
2023-07-23T04:59:04.002Z,70.51
2023-07-23T04:59:37.464Z,70.62
2023-07-23T05:00:11.180Z,70.55
2023-07-23T05:00:44.394Z,70.61
2023-07-23T05:01:19.967Z,70.57
2023-07-23T05:01:53.211Z,70.53
2023-07-23T05:02:26.584Z,70.71
2023-07-23T05:02:59.849Z,70.60
2023-07-23T05:03:33.329Z,70.77
2023-07-23T05:04:06.676Z,70.62
2023-07-23T05:04:39.900Z,70.65
2023-07-23T05:05:13.199Z,70.25
2023-07-23T05:05:50.907Z,70.60
2023-07-23T05:06:24.772Z,70.63
2023-07-23T05:06:58.034Z,70.61
2023-07-23T05:07:31.338Z,70.77
2023-07-23T05:08:04.929Z,70.74
2023-07-23T05:08:38.289Z,70.73
2023-07-23T05:09:14.166Z,70.76
2023-07-23T05:09:47.403Z,70.84
2023-07-23T05:10:20.735Z,70.69
2023-07-23T05:11:00.765Z,70.27
2023-07-23T05:11:36.938Z,70.20
2023-07-23T05:12:10.297Z,70.27
2023-07-23T05:12:43.683Z,70.38
2023-07-23T05:13:19.056Z,70.21
2023-07-23T05:13:52.272Z,70.60
2023-07-23T05:14:25.505Z,70.45
2023-07-23T05:15:13.549Z,70.17
2023-07-23T05:15:46.837Z,70.25
2023-07-23T05:16:20.149Z,70.55
2023-07-23T05:16:53.494Z,70.45
2023-07-23T05:17:26.820Z,70.26
2023-07-23T05:18:00.141Z,70.14
2023-07-23T05:18:33.956Z,70.08
2023-07-23T05:19:07.280Z,70.21
2023-07-23T05:19:40.883Z,70.23
2023-07-23T05:20:14.657Z,70.25
2023-07-23T05:20:47.948Z,70.35
2023-07-23T05:21:21.173Z,70.21
2023-07-23T05:21:54.690Z,70.08
2023-07-23T05:22:27.930Z,70.01
2023-07-23T05:23:01.286Z,69.90
2023-07-23T05:23:34.509Z,70.11
2023-07-23T05:24:07.847Z,70.16
2023-07-23T05:24:41.109Z,70.05
2023-07-23T05:25:14.546Z,69.98
2023-07-23T05:25:47.944Z,69.88
2023-07-23T05:26:21.200Z,69.74
2023-07-23T05:26:54.554Z,69.76
2023-07-23T05:27:28.027Z,69.74
2023-07-23T05:28:02.332Z,69.81
2023-07-23T05:28:35.794Z,69.81
2023-07-23T05:29:09.218Z,69.54
2023-07-23T05:29:42.473Z,69.29
2023-07-23T05:30:16.108Z,69.44
2023-07-23T05:30:49.351Z,69.50
2023-07-23T05:31:22.826Z,69.46
2023-07-23T05:31:56.149Z,69.48
2023-07-23T05:32:29.478Z,69.38
2023-07-23T05:33:02.911Z,69.32
2023-07-23T05:33:36.388Z,69.18
2023-07-23T05:34:09.620Z,69.13
2023-07-23T05:34:42.794Z,69.23
2023-07-23T05:35:16.231Z,69.28
2023-07-23T05:35:49.475Z,69.01
2023-07-23T05:36:22.771Z,68.91
2023-07-23T05:36:56.195Z,68.63
2023-07-23T05:37:29.612Z,68.75
2023-07-23T05:38:02.996Z,68.85
2023-07-23T05:38:36.357Z,68.88
2023-07-23T05:39:10.487Z,68.79
2023-07-23T05:39:43.912Z,68.61
2023-07-23T05:40:17.266Z,68.59
2023-07-23T05:40:57.841Z,68.72
2023-07-23T05:41:31.510Z,68.68
2023-07-23T05:42:05.464Z,68.66
2023-07-23T05:42:39.006Z,68.79
2023-07-23T05:43:18.082Z,68.78
2023-07-23T05:43:51.399Z,68.87
2023-07-23T05:44:26.903Z,69.08
2023-07-23T05:45:00.239Z,68.81
2023-07-23T05:45:33.628Z,68.37
2023-07-23T05:46:07.165Z,67.71
2023-07-23T05:46:40.640Z,67.68
2023-07-23T05:47:14.197Z,67.55
2023-07-23T05:47:47.365Z,67.30
2023-07-23T05:48:20.758Z,67.56
2023-07-23T05:48:54.003Z,67.03
2023-07-23T05:49:27.341Z,67.11
2023-07-23T05:50:00.589Z,67.20
2023-07-23T05:50:33.904Z,67.11
2023-07-23T05:51:07.211Z,66.84
2023-07-23T05:51:40.594Z,66.80
2023-07-23T05:52:13.965Z,66.77
2023-07-23T05:52:47.269Z,66.39
2023-07-23T05:53:20.553Z,66.43
2023-07-23T05:53:53.835Z,66.29
2023-07-23T05:54:27.296Z,66.48
2023-07-23T05:55:00.628Z,66.69
2023-07-23T05:55:34.128Z,67.03
2023-07-23T05:56:07.491Z,66.55
2023-07-23T05:56:40.843Z,66.38
2023-07-23T05:57:15.316Z,66.61
2023-07-23T05:57:48.713Z,67.02
2023-07-23T05:58:21.950Z,66.96
2023-07-23T05:58:55.281Z,66.75
2023-07-23T05:59:28.646Z,66.59
2023-07-23T06:00:01.886Z,66.29
2023-07-23T06:00:44.904Z,66.06
2023-07-23T06:01:18.503Z,65.88
2023-07-23T06:01:52.832Z,65.78
2023-07-23T06:02:26.167Z,65.53
2023-07-23T06:02:59.574Z,65.59
2023-07-23T06:03:48.004Z,65.83
2023-07-23T06:04:26.343Z,65.78
2023-07-23T06:04:59.693Z,66.04
2023-07-23T06:05:33.014Z,66.23
2023-07-23T06:06:06.287Z,66.06
2023-07-23T06:06:39.597Z,66.07
2023-07-23T06:07:12.986Z,65.80
2023-07-23T06:07:46.285Z,65.60
2023-07-23T06:08:19.546Z,65.44
2023-07-23T06:08:52.848Z,65.31
2023-07-23T06:09:27.712Z,65.00
2023-07-23T06:10:01.504Z,64.69
2023-07-23T06:10:34.918Z,64.60
2023-07-23T06:11:08.208Z,64.39
2023-07-23T06:11:42.333Z,64.06
2023-07-23T06:12:15.615Z,64.10
2023-07-23T06:12:48.845Z,64.36
2023-07-23T06:13:22.040Z,64.44
2023-07-23T06:13:55.451Z,64.40
2023-07-23T06:14:28.874Z,64.12
2023-07-23T06:15:03.269Z,63.66
2023-07-23T06:15:36.645Z,63.59
2023-07-23T06:16:10.616Z,63.62
2023-07-23T06:16:43.862Z,63.50
2023-07-23T06:17:17.053Z,63.52
2023-07-23T06:17:50.329Z,63.57
2023-07-23T06:18:23.694Z,63.23
2023-07-23T06:18:58.215Z,63.67
2023-07-23T06:19:31.549Z,64.14
2023-07-23T06:20:05.660Z,63.89
2023-07-23T06:20:39.073Z,63.53
2023-07-23T06:21:12.332Z,63.36
2023-07-23T06:21:45.559Z,63.02
2023-07-23T06:22:18.874Z,63.18
2023-07-23T06:22:52.062Z,63.20
2023-07-23T06:23:25.302Z,63.18
2023-07-23T06:23:58.499Z,62.94
2023-07-23T06:24:31.808Z,62.86
2023-07-23T06:25:06.053Z,62.60
2023-07-23T06:25:40.842Z,62.50
2023-07-23T06:26:15.129Z,62.42
2023-07-23T06:26:48.547Z,62.26
2023-07-23T06:27:21.942Z,62.28
2023-07-23T06:27:55.247Z,62.30
2023-07-23T06:28:28.505Z,61.51
2023-07-23T06:29:01.664Z,61.08
2023-07-23T06:29:34.978Z,61.04
2023-07-23T06:30:08.816Z,60.59
2023-07-23T06:30:42.191Z,60.49
2023-07-23T06:31:15.694Z,59.47
2023-07-23T06:31:49.025Z,59.18
2023-07-23T06:32:22.414Z,58.83
2023-07-23T06:32:55.796Z,58.70
2023-07-23T06:33:29.345Z,58.28
2023-07-23T06:34:02.644Z,58.07
2023-07-23T06:34:35.938Z,57.55
2023-07-23T06:35:12.128Z,57.28
2023-07-23T06:35:46.235Z,56.97
2023-07-23T06:36:19.494Z,56.72
2023-07-23T06:36:52.897Z,56.58
2023-07-23T06:37:26.160Z,55.93
2023-07-23T06:37:59.471Z,55.81
2023-07-23T06:38:32.847Z,55.83
2023-07-23T06:39:06.225Z,55.23
2023-07-23T06:39:39.703Z,54.83
2023-07-23T06:40:13.097Z,54.58
2023-07-23T06:40:52.334Z,54.49
2023-07-23T06:41:25.976Z,54.52
2023-07-23T06:41:59.463Z,53.99
2023-07-23T06:42:32.962Z,54.16
2023-07-23T06:43:06.264Z,54.00
2023-07-23T06:43:39.608Z,53.63
2023-07-23T06:44:12.891Z,53.81
2023-07-23T06:44:46.267Z,53.38
2023-07-23T06:45:19.624Z,52.83
2023-07-23T06:45:53.372Z,52.49
2023-07-23T06:46:26.884Z,52.55
2023-07-23T06:47:00.295Z,52.43
2023-07-23T06:47:33.763Z,52.46
2023-07-23T06:48:07.371Z,52.48
2023-07-23T06:48:40.659Z,52.20
2023-07-23T06:49:14.807Z,51.68
2023-07-23T06:49:48.136Z,51.48
2023-07-23T06:50:21.337Z,51.77
2023-07-23T06:50:54.651Z,51.33
2023-07-23T06:51:28.219Z,51.29
2023-07-23T06:52:01.636Z,51.35
2023-07-23T06:52:35.070Z,51.38
2023-07-23T06:53:08.580Z,51.18
2023-07-23T06:53:45.080Z,50.93
2023-07-23T06:54:18.366Z,50.87
2023-07-23T06:54:51.955Z,50.90
2023-07-23T06:55:25.651Z,50.68
2023-07-23T06:56:09.651Z,50.61
2023-07-23T06:56:42.946Z,50.39
2023-07-23T06:57:16.300Z,50.40
2023-07-23T06:57:50.184Z,49.91
2023-07-23T06:58:23.551Z,49.43
2023-07-23T06:58:56.906Z,49.42
2023-07-23T06:59:30.202Z,49.35
2023-07-23T07:00:04.529Z,49.30
2023-07-23T07:00:38.000Z,49.43
2023-07-23T07:01:11.893Z,49.30
2023-07-23T07:01:45.846Z,49.11
2023-07-23T07:02:19.146Z,48.89
2023-07-23T07:02:52.362Z,48.70
2023-07-23T07:03:26.435Z,48.64
2023-07-23T07:03:59.967Z,48.84
2023-07-23T07:04:33.224Z,48.88
2023-07-23T07:05:06.707Z,48.96
2023-07-23T07:05:39.979Z,49.18
2023-07-23T07:06:13.849Z,48.60
2023-07-23T07:06:47.147Z,48.31
2023-07-23T07:07:20.442Z,48.14
2023-07-23T07:07:53.840Z,47.64
2023-07-23T07:08:28.568Z,47.55
2023-07-23T07:09:01.928Z,47.29
2023-07-23T07:09:35.201Z,47.14
2023-07-23T07:10:09.742Z,46.91
2023-07-23T07:10:43.156Z,46.66
2023-07-23T07:11:17.252Z,46.29
2023-07-23T07:11:52.263Z,46.15
2023-07-23T07:12:26.090Z,46.19
2023-07-23T07:12:59.301Z,45.82
2023-07-23T07:13:32.734Z,45.69
2023-07-23T07:14:06.581Z,45.61
2023-07-23T07:14:39.854Z,45.67
2023-07-23T07:15:13.270Z,45.57
2023-07-23T07:15:46.507Z,45.41
2023-07-23T07:16:21.470Z,45.48
2023-07-23T07:16:54.714Z,45.56
2023-07-23T07:17:28.118Z,45.54